sensor_id;sensor_type;location;lat;lon;timestamp;P1;durP1;ratioP1;P2;durP2;ratioP2
3379;SDS011;1703;51.964;7.642;2023-07-13T00:01:26;6.93;;;3.47;;
3379;SDS011;1703;51.964;7.642;2023-07-13T00:03:53;4.93;;;3.67;;
3379;SDS011;1703;51.964;7.642;2023-07-13T00:06:21;4.87;;;3.03;;
3379;SDS011;1703;51.964;7.642;2023-07-13T00:08:48;5.80;;;2.70;;
3379;SDS011;1703;51.964;7.642;2023-07-13T00:11:15;2.77;;;2.50;;
3379;SDS011;1703;51.964;7.642;2023-07-13T00:13:43;5.70;;;2.97;;
3379;SDS011;1703;51.964;7.642;2023-07-13T00:16:10;7.57;;;3.63;;
3379;SDS011;1703;51.964;7.642;2023-07-13T00:18:38;8.73;;;3.40;;
3379;SDS011;1703;51.964;7.642;2023-07-13T00:21:06;6.40;;;2.93;;
3379;SDS011;1703;51.964;7.642;2023-07-13T00:23:34;6.97;;;2.97;;
3379;SDS011;1703;51.964;7.642;2023-07-13T00:26:03;6.40;;;2.63;;
3379;SDS011;1703;51.964;7.642;2023-07-13T00:28:31;4.70;;;2.57;;
3379;SDS011;1703;51.964;7.642;2023-07-13T00:30:59;4.90;;;2.37;;
3379;SDS011;1703;51.964;7.642;2023-07-13T00:33:26;10.23;;;2.90;;
3379;SDS011;1703;51.964;7.642;2023-07-13T00:35:54;3.80;;;2.47;;
3379;SDS011;1703;51.964;7.642;2023-07-13T00:38:21;3.23;;;2.33;;
3379;SDS011;1703;51.964;7.642;2023-07-13T00:40:50;5.07;;;2.83;;
3379;SDS011;1703;51.964;7.642;2023-07-13T00:43:17;4.23;;;2.40;;
3379;SDS011;1703;51.964;7.642;2023-07-13T00:48:48;5.77;;;2.27;;
3379;SDS011;1703;51.964;7.642;2023-07-13T00:51:17;6.30;;;4.27;;
3379;SDS011;1703;51.964;7.642;2023-07-13T00:53:47;5.43;;;2.80;;
3379;SDS011;1703;51.964;7.642;2023-07-13T00:56:17;9.60;;;3.23;;
3379;SDS011;1703;51.964;7.642;2023-07-13T00:58:43;2.63;;;2.43;;
3379;SDS011;1703;51.964;7.642;2023-07-13T01:01:11;9.67;;;3.33;;
3379;SDS011;1703;51.964;7.642;2023-07-13T01:03:39;5.00;;;2.50;;
3379;SDS011;1703;51.964;7.642;2023-07-13T01:06:06;5.73;;;3.10;;
3379;SDS011;1703;51.964;7.642;2023-07-13T01:08:33;7.57;;;3.40;;
3379;SDS011;1703;51.964;7.642;2023-07-13T01:11:00;11.07;;;3.00;;
3379;SDS011;1703;51.964;7.642;2023-07-13T01:13:28;5.07;;;2.33;;
3379;SDS011;1703;51.964;7.642;2023-07-13T01:15:55;7.37;;;3.07;;
3379;SDS011;1703;51.964;7.642;2023-07-13T01:18:27;7.83;;;2.80;;
3379;SDS011;1703;51.964;7.642;2023-07-13T01:20:57;3.90;;;3.00;;
3379;SDS011;1703;51.964;7.642;2023-07-13T01:23:25;8.37;;;3.47;;
3379;SDS011;1703;51.964;7.642;2023-07-13T01:25:54;5.70;;;2.87;;
3379;SDS011;1703;51.964;7.642;2023-07-13T01:28:22;3.77;;;3.00;;
3379;SDS011;1703;51.964;7.642;2023-07-13T01:30:52;5.40;;;2.60;;
3379;SDS011;1703;51.964;7.642;2023-07-13T01:33:21;5.67;;;3.17;;
3379;SDS011;1703;51.964;7.642;2023-07-13T01:35:49;10.47;;;4.87;;
3379;SDS011;1703;51.964;7.642;2023-07-13T01:38:20;9.63;;;3.30;;
3379;SDS011;1703;51.964;7.642;2023-07-13T01:40:48;13.13;;;3.23;;
3379;SDS011;1703;51.964;7.642;2023-07-13T01:43:15;8.23;;;3.13;;
3379;SDS011;1703;51.964;7.642;2023-07-13T01:45:43;6.50;;;3.07;;
3379;SDS011;1703;51.964;7.642;2023-07-13T01:48:10;6.90;;;3.87;;
3379;SDS011;1703;51.964;7.642;2023-07-13T01:50:38;13.83;;;3.23;;
3379;SDS011;1703;51.964;7.642;2023-07-13T01:53:05;5.33;;;2.43;;
3379;SDS011;1703;51.964;7.642;2023-07-13T01:55:33;9.57;;;3.30;;
3379;SDS011;1703;51.964;7.642;2023-07-13T01:58:01;7.90;;;3.07;;
3379;SDS011;1703;51.964;7.642;2023-07-13T02:00:28;5.27;;;2.63;;
3379;SDS011;1703;51.964;7.642;2023-07-13T02:02:55;10.60;;;2.60;;
3379;SDS011;1703;51.964;7.642;2023-07-13T02:05:23;5.33;;;3.00;;
3379;SDS011;1703;51.964;7.642;2023-07-13T02:07:50;8.53;;;3.37;;
3379;SDS011;1703;51.964;7.642;2023-07-13T02:10:18;13.93;;;3.10;;
3379;SDS011;1703;51.964;7.642;2023-07-13T02:12:47;6.40;;;2.50;;
3379;SDS011;1703;51.964;7.642;2023-07-13T02:15:15;8.77;;;2.90;;
3379;SDS011;1703;51.964;7.642;2023-07-13T02:17:42;3.47;;;2.50;;
3379;SDS011;1703;51.964;7.642;2023-07-13T02:20:09;11.80;;;2.63;;
3379;SDS011;1703;51.964;7.642;2023-07-13T02:22:36;20.40;;;3.77;;
3379;SDS011;1703;51.964;7.642;2023-07-13T02:25:03;11.77;;;3.60;;
3379;SDS011;1703;51.964;7.642;2023-07-13T02:27:31;8.87;;;4.00;;
3379;SDS011;1703;51.964;7.642;2023-07-13T02:29:59;8.17;;;3.13;;
3379;SDS011;1703;51.964;7.642;2023-07-13T02:32:26;7.60;;;3.50;;
3379;SDS011;1703;51.964;7.642;2023-07-13T02:34:52;2.80;;;2.60;;
3379;SDS011;1703;51.964;7.642;2023-07-13T02:37:19;6.20;;;3.60;;
3379;SDS011;1703;51.964;7.642;2023-07-13T02:39:46;7.47;;;3.67;;
3379;SDS011;1703;51.964;7.642;2023-07-13T02:42:13;6.37;;;2.80;;
3379;SDS011;1703;51.964;7.642;2023-07-13T02:44:41;6.83;;;2.80;;
3379;SDS011;1703;51.964;7.642;2023-07-13T02:47:10;8.73;;;3.60;;
3379;SDS011;1703;51.964;7.642;2023-07-13T02:49:38;5.50;;;3.00;;
3379;SDS011;1703;51.964;7.642;2023-07-13T02:52:05;8.80;;;3.30;;
3379;SDS011;1703;51.964;7.642;2023-07-13T02:54:32;13.33;;;3.40;;
3379;SDS011;1703;51.964;7.642;2023-07-13T02:56:59;3.43;;;2.00;;
3379;SDS011;1703;51.964;7.642;2023-07-13T02:59:26;6.17;;;2.60;;
3379;SDS011;1703;51.964;7.642;2023-07-13T03:01:53;6.00;;;2.47;;
3379;SDS011;1703;51.964;7.642;2023-07-13T03:04:21;5.43;;;2.40;;
3379;SDS011;1703;51.964;7.642;2023-07-13T03:06:47;6.50;;;3.00;;
3379;SDS011;1703;51.964;7.642;2023-07-13T03:09:14;8.23;;;2.77;;
3379;SDS011;1703;51.964;7.642;2023-07-13T03:11:47;7.33;;;2.47;;
3379;SDS011;1703;51.964;7.642;2023-07-13T03:14:22;10.60;;;2.80;;
3379;SDS011;1703;51.964;7.642;2023-07-13T03:16:49;4.47;;;2.50;;
3379;SDS011;1703;51.964;7.642;2023-07-13T03:19:17;4.70;;;2.17;;
3379;SDS011;1703;51.964;7.642;2023-07-13T03:21:50;5.23;;;2.57;;
3379;SDS011;1703;51.964;7.642;2023-07-13T03:24:17;5.60;;;2.27;;
3379;SDS011;1703;51.964;7.642;2023-07-13T03:26:43;8.20;;;2.77;;
3379;SDS011;1703;51.964;7.642;2023-07-13T03:29:10;8.43;;;2.30;;
3379;SDS011;1703;51.964;7.642;2023-07-13T03:31:37;5.63;;;2.73;;
3379;SDS011;1703;51.964;7.642;2023-07-13T03:34:06;7.10;;;2.60;;
3379;SDS011;1703;51.964;7.642;2023-07-13T03:36:34;9.83;;;3.03;;
3379;SDS011;1703;51.964;7.642;2023-07-13T03:39:06;3.23;;;1.87;;
3379;SDS011;1703;51.964;7.642;2023-07-13T03:41:42;3.87;;;2.50;;
3379;SDS011;1703;51.964;7.642;2023-07-13T03:44:09;6.77;;;2.10;;
3379;SDS011;1703;51.964;7.642;2023-07-13T03:46:35;4.37;;;2.60;;
3379;SDS011;1703;51.964;7.642;2023-07-13T03:49:03;7.80;;;2.70;;
3379;SDS011;1703;51.964;7.642;2023-07-13T03:51:32;4.30;;;1.90;;
3379;SDS011;1703;51.964;7.642;2023-07-13T03:53:59;4.13;;;1.80;;
3379;SDS011;1703;51.964;7.642;2023-07-13T03:56:29;2.60;;;2.07;;
3379;SDS011;1703;51.964;7.642;2023-07-13T03:58:58;6.13;;;1.83;;
3379;SDS011;1703;51.964;7.642;2023-07-13T04:01:26;6.80;;;2.20;;
3379;SDS011;1703;51.964;7.642;2023-07-13T04:03:52;6.90;;;2.60;;
3379;SDS011;1703;51.964;7.642;2023-07-13T04:06:22;2.93;;;2.20;;
3379;SDS011;1703;51.964;7.642;2023-07-13T04:08:52;10.07;;;3.07;;
3379;SDS011;1703;51.964;7.642;2023-07-13T04:11:21;5.27;;;2.70;;
3379;SDS011;1703;51.964;7.642;2023-07-13T04:13:51;8.80;;;3.43;;
3379;SDS011;1703;51.964;7.642;2023-07-13T04:16:18;7.40;;;2.60;;
3379;SDS011;1703;51.964;7.642;2023-07-13T04:18:45;13.40;;;2.80;;
3379;SDS011;1703;51.964;7.642;2023-07-13T04:21:13;5.10;;;2.73;;
3379;SDS011;1703;51.964;7.642;2023-07-13T04:23:40;4.63;;;2.30;;
3379;SDS011;1703;51.964;7.642;2023-07-13T04:26:07;8.20;;;2.47;;
3379;SDS011;1703;51.964;7.642;2023-07-13T04:28:34;6.57;;;2.40;;
3379;SDS011;1703;51.964;7.642;2023-07-13T04:31:02;5.10;;;2.67;;
3379;SDS011;1703;51.964;7.642;2023-07-13T04:33:29;5.67;;;2.37;;
3379;SDS011;1703;51.964;7.642;2023-07-13T04:35:56;8.63;;;2.30;;
3379;SDS011;1703;51.964;7.642;2023-07-13T04:38:25;3.53;;;2.27;;
3379;SDS011;1703;51.964;7.642;2023-07-13T04:40:54;3.67;;;1.77;;
3379;SDS011;1703;51.964;7.642;2023-07-13T04:43:22;14.60;;;2.30;;
3379;SDS011;1703;51.964;7.642;2023-07-13T04:45:49;3.43;;;2.63;;
3379;SDS011;1703;51.964;7.642;2023-07-13T04:48:17;6.03;;;3.37;;
3379;SDS011;1703;51.964;7.642;2023-07-13T04:50:44;6.90;;;2.70;;
3379;SDS011;1703;51.964;7.642;2023-07-13T04:53:11;5.40;;;2.13;;
3379;SDS011;1703;51.964;7.642;2023-07-13T04:55:38;4.20;;;2.20;;
3379;SDS011;1703;51.964;7.642;2023-07-13T04:58:06;8.23;;;3.23;;
3379;SDS011;1703;51.964;7.642;2023-07-13T05:00:33;6.70;;;2.40;;
3379;SDS011;1703;51.964;7.642;2023-07-13T05:02:59;10.53;;;2.50;;
3379;SDS011;1703;51.964;7.642;2023-07-13T05:05:28;5.20;;;2.33;;
3379;SDS011;1703;51.964;7.642;2023-07-13T05:07:55;10.37;;;2.87;;
3379;SDS011;1703;51.964;7.642;2023-07-13T05:10:21;13.97;;;3.17;;
3379;SDS011;1703;51.964;7.642;2023-07-13T05:12:49;4.37;;;2.63;;
3379;SDS011;1703;51.964;7.642;2023-07-13T05:15:16;8.07;;;2.47;;
3379;SDS011;1703;51.964;7.642;2023-07-13T05:17:46;12.13;;;2.97;;
3379;SDS011;1703;51.964;7.642;2023-07-13T05:20:12;9.40;;;2.60;;
3379;SDS011;1703;51.964;7.642;2023-07-13T05:22:41;5.27;;;2.37;;
3379;SDS011;1703;51.964;7.642;2023-07-13T05:25:08;4.40;;;2.20;;
3379;SDS011;1703;51.964;7.642;2023-07-13T05:27:35;6.60;;;2.17;;
3379;SDS011;1703;51.964;7.642;2023-07-13T05:30:03;5.17;;;1.90;;
3379;SDS011;1703;51.964;7.642;2023-07-13T05:32:31;8.30;;;2.47;;
3379;SDS011;1703;51.964;7.642;2023-07-13T05:34:58;3.67;;;2.20;;
3379;SDS011;1703;51.964;7.642;2023-07-13T05:37:25;5.33;;;1.90;;
3379;SDS011;1703;51.964;7.642;2023-07-13T05:39:53;3.50;;;2.50;;
3379;SDS011;1703;51.964;7.642;2023-07-13T05:42:20;7.60;;;2.87;;
3379;SDS011;1703;51.964;7.642;2023-07-13T05:44:47;5.80;;;2.90;;
3379;SDS011;1703;51.964;7.642;2023-07-13T05:47:14;6.37;;;3.10;;
3379;SDS011;1703;51.964;7.642;2023-07-13T05:49:40;12.40;;;2.93;;
3379;SDS011;1703;51.964;7.642;2023-07-13T05:52:07;7.47;;;2.97;;
3379;SDS011;1703;51.964;7.642;2023-07-13T05:54:34;11.07;;;3.17;;
3379;SDS011;1703;51.964;7.642;2023-07-13T05:57:03;6.67;;;2.77;;
3379;SDS011;1703;51.964;7.642;2023-07-13T05:59:30;6.37;;;2.50;;
3379;SDS011;1703;51.964;7.642;2023-07-13T06:01:57;9.60;;;3.43;;
3379;SDS011;1703;51.964;7.642;2023-07-13T06:04:24;15.43;;;3.33;;
3379;SDS011;1703;51.964;7.642;2023-07-13T06:06:50;9.37;;;4.20;;
3379;SDS011;1703;51.964;7.642;2023-07-13T06:09:17;13.67;;;3.57;;
3379;SDS011;1703;51.964;7.642;2023-07-13T06:11:44;7.43;;;1.93;;
3379;SDS011;1703;51.964;7.642;2023-07-13T06:14:12;8.63;;;2.60;;
3379;SDS011;1703;51.964;7.642;2023-07-13T06:16:39;8.27;;;2.97;;
3379;SDS011;1703;51.964;7.642;2023-07-13T06:19:07;3.77;;;2.27;;
3379;SDS011;1703;51.964;7.642;2023-07-13T06:21:34;16.17;;;4.47;;
3379;SDS011;1703;51.964;7.642;2023-07-13T06:24:00;11.33;;;3.60;;
3379;SDS011;1703;51.964;7.642;2023-07-13T06:26:27;11.30;;;3.80;;
3379;SDS011;1703;51.964;7.642;2023-07-13T06:28:54;14.60;;;4.17;;
3379;SDS011;1703;51.964;7.642;2023-07-13T06:31:22;8.93;;;3.60;;
3379;SDS011;1703;51.964;7.642;2023-07-13T06:33:49;14.27;;;6.10;;
3379;SDS011;1703;51.964;7.642;2023-07-13T06:36:16;9.53;;;2.87;;
3379;SDS011;1703;51.964;7.642;2023-07-13T06:38:43;14.40;;;3.50;;
3379;SDS011;1703;51.964;7.642;2023-07-13T06:41:09;6.80;;;3.10;;
3379;SDS011;1703;51.964;7.642;2023-07-13T06:43:36;8.47;;;3.33;;
3379;SDS011;1703;51.964;7.642;2023-07-13T06:46:03;9.63;;;3.47;;
3379;SDS011;1703;51.964;7.642;2023-07-13T06:48:31;9.67;;;2.97;;
3379;SDS011;1703;51.964;7.642;2023-07-13T06:50:58;9.23;;;3.83;;
3379;SDS011;1703;51.964;7.642;2023-07-13T06:53:25;14.20;;;2.90;;
3379;SDS011;1703;51.964;7.642;2023-07-13T06:55:52;9.30;;;3.50;;
3379;SDS011;1703;51.964;7.642;2023-07-13T06:58:18;9.07;;;2.83;;
3379;SDS011;1703;51.964;7.642;2023-07-13T07:00:46;10.47;;;2.77;;
3379;SDS011;1703;51.964;7.642;2023-07-13T07:03:16;8.50;;;2.70;;
3379;SDS011;1703;51.964;7.642;2023-07-13T07:05:44;6.90;;;2.50;;
3379;SDS011;1703;51.964;7.642;2023-07-13T07:08:11;6.77;;;2.73;;
3379;SDS011;1703;51.964;7.642;2023-07-13T07:10:38;13.07;;;2.97;;
3379;SDS011;1703;51.964;7.642;2023-07-13T07:13:04;12.03;;;3.20;;
3379;SDS011;1703;51.964;7.642;2023-07-13T07:15:31;10.40;;;3.80;;
3379;SDS011;1703;51.964;7.642;2023-07-13T07:17:58;12.03;;;2.70;;
3379;SDS011;1703;51.964;7.642;2023-07-13T07:20:25;12.03;;;3.00;;
3379;SDS011;1703;51.964;7.642;2023-07-13T07:22:53;10.43;;;2.63;;
3379;SDS011;1703;51.964;7.642;2023-07-13T07:25:20;4.40;;;2.07;;
3379;SDS011;1703;51.964;7.642;2023-07-13T07:27:46;12.80;;;2.97;;
3379;SDS011;1703;51.964;7.642;2023-07-13T07:30:13;8.80;;;3.23;;
3379;SDS011;1703;51.964;7.642;2023-07-13T07:32:40;13.57;;;3.40;;
3379;SDS011;1703;51.964;7.642;2023-07-13T07:35:08;10.27;;;3.60;;
3379;SDS011;1703;51.964;7.642;2023-07-13T07:37:35;8.50;;;3.77;;
3379;SDS011;1703;51.964;7.642;2023-07-13T07:40:03;10.33;;;3.60;;
3379;SDS011;1703;51.964;7.642;2023-07-13T07:42:31;13.77;;;3.87;;
3379;SDS011;1703;51.964;7.642;2023-07-13T07:44:58;9.80;;;4.00;;
3379;SDS011;1703;51.964;7.642;2023-07-13T07:47:25;5.97;;;3.70;;
3379;SDS011;1703;51.964;7.642;2023-07-13T07:49:52;8.93;;;3.97;;
3379;SDS011;1703;51.964;7.642;2023-07-13T07:52:19;3.80;;;3.10;;
3379;SDS011;1703;51.964;7.642;2023-07-13T07:54:46;10.73;;;4.27;;
3379;SDS011;1703;51.964;7.642;2023-07-13T07:57:14;5.10;;;2.83;;
3379;SDS011;1703;51.964;7.642;2023-07-13T07:59:41;7.27;;;3.47;;
3379;SDS011;1703;51.964;7.642;2023-07-13T08:02:08;10.70;;;3.70;;
3379;SDS011;1703;51.964;7.642;2023-07-13T08:04:36;12.20;;;4.30;;
3379;SDS011;1703;51.964;7.642;2023-07-13T08:07:03;12.47;;;3.03;;
3379;SDS011;1703;51.964;7.642;2023-07-13T08:09:30;16.20;;;5.13;;
3379;SDS011;1703;51.964;7.642;2023-07-13T08:11:57;9.30;;;4.13;;
3379;SDS011;1703;51.964;7.642;2023-07-13T08:14:25;15.40;;;5.23;;
3379;SDS011;1703;51.964;7.642;2023-07-13T08:16:52;5.67;;;3.47;;
3379;SDS011;1703;51.964;7.642;2023-07-13T08:19:19;9.50;;;4.80;;
3379;SDS011;1703;51.964;7.642;2023-07-13T08:21:45;9.67;;;4.77;;
3379;SDS011;1703;51.964;7.642;2023-07-13T08:24:13;8.30;;;5.07;;
3379;SDS011;1703;51.964;7.642;2023-07-13T08:26:40;7.30;;;4.20;;
3379;SDS011;1703;51.964;7.642;2023-07-13T08:29:07;10.43;;;4.13;;
3379;SDS011;1703;51.964;7.642;2023-07-13T08:31:35;17.13;;;5.03;;
3379;SDS011;1703;51.964;7.642;2023-07-13T08:34:01;17.17;;;6.13;;
3379;SDS011;1703;51.964;7.642;2023-07-13T08:36:28;16.43;;;5.20;;
3379;SDS011;1703;51.964;7.642;2023-07-13T08:38:55;7.20;;;4.53;;
3379;SDS011;1703;51.964;7.642;2023-07-13T08:41:22;4.23;;;3.93;;
3379;SDS011;1703;51.964;7.642;2023-07-13T08:43:49;9.33;;;4.67;;
3379;SDS011;1703;51.964;7.642;2023-07-13T08:46:21;8.30;;;4.60;;
3379;SDS011;1703;51.964;7.642;2023-07-13T08:48:53;11.20;;;4.77;;
3379;SDS011;1703;51.964;7.642;2023-07-13T08:51:28;12.83;;;4.97;;
3379;SDS011;1703;51.964;7.642;2023-07-13T08:54:02;7.10;;;3.83;;
3379;SDS011;1703;51.964;7.642;2023-07-13T08:56:30;15.47;;;5.17;;
3379;SDS011;1703;51.964;7.642;2023-07-13T08:58:59;13.93;;;4.10;;
3379;SDS011;1703;51.964;7.642;2023-07-13T09:01:31;8.00;;;4.97;;
3379;SDS011;1703;51.964;7.642;2023-07-13T09:04:12;5.87;;;4.50;;
3379;SDS011;1703;51.964;7.642;2023-07-13T09:06:45;9.43;;;5.57;;
3379;SDS011;1703;51.964;7.642;2023-07-13T09:09:32;11.60;;;4.70;;
3379;SDS011;1703;51.964;7.642;2023-07-13T09:12:11;9.93;;;3.57;;
3379;SDS011;1703;51.964;7.642;2023-07-13T09:14:44;6.20;;;3.70;;
3379;SDS011;1703;51.964;7.642;2023-07-13T09:17:15;6.60;;;3.60;;
3379;SDS011;1703;51.964;7.642;2023-07-13T09:19:47;9.77;;;3.67;;
3379;SDS011;1703;51.964;7.642;2023-07-13T09:22:19;4.10;;;3.70;;
3379;SDS011;1703;51.964;7.642;2023-07-13T09:24:50;8.53;;;3.50;;
3379;SDS011;1703;51.964;7.642;2023-07-13T09:27:27;8.63;;;4.17;;
3379;SDS011;1703;51.964;7.642;2023-07-13T09:30:02;9.40;;;5.20;;
3379;SDS011;1703;51.964;7.642;2023-07-13T09:32:45;9.13;;;4.33;;
3379;SDS011;1703;51.964;7.642;2023-07-13T09:35:19;14.17;;;5.20;;
3379;SDS011;1703;51.964;7.642;2023-07-13T09:37:48;15.97;;;4.63;;
3379;SDS011;1703;51.964;7.642;2023-07-13T09:40:17;7.97;;;3.57;;
3379;SDS011;1703;51.964;7.642;2023-07-13T09:42:51;12.57;;;4.17;;
3379;SDS011;1703;51.964;7.642;2023-07-13T09:45:26;7.10;;;3.83;;
3379;SDS011;1703;51.964;7.642;2023-07-13T09:47:58;9.70;;;4.60;;
3379;SDS011;1703;51.964;7.642;2023-07-13T09:50:27;12.50;;;4.87;;
3379;SDS011;1703;51.964;7.642;2023-07-13T09:52:54;6.53;;;4.30;;
3379;SDS011;1703;51.964;7.642;2023-07-13T09:55:24;13.03;;;4.10;;
3379;SDS011;1703;51.964;7.642;2023-07-13T09:57:52;5.97;;;4.30;;
3379;SDS011;1703;51.964;7.642;2023-07-13T10:00:23;6.17;;;3.23;;
3379;SDS011;1703;51.964;7.642;2023-07-13T10:02:59;9.97;;;3.10;;
3379;SDS011;1703;51.964;7.642;2023-07-13T10:05:38;3.30;;;2.90;;
3379;SDS011;1703;51.964;7.642;2023-07-13T10:08:05;5.30;;;3.20;;
3379;SDS011;1703;51.964;7.642;2023-07-13T10:10:40;5.83;;;2.63;;
3379;SDS011;1703;51.964;7.642;2023-07-13T10:13:12;7.43;;;3.53;;
3379;SDS011;1703;51.964;7.642;2023-07-13T10:15:59;6.83;;;2.77;;
3379;SDS011;1703;51.964;7.642;2023-07-13T10:18:27;10.67;;;3.47;;
3379;SDS011;1703;51.964;7.642;2023-07-13T10:21:00;4.43;;;2.73;;
3379;SDS011;1703;51.964;7.642;2023-07-13T10:23:37;7.03;;;3.10;;
3379;SDS011;1703;51.964;7.642;2023-07-13T10:26:04;4.83;;;2.53;;
3379;SDS011;1703;51.964;7.642;2023-07-13T10:28:40;3.97;;;3.23;;
3379;SDS011;1703;51.964;7.642;2023-07-13T10:31:10;6.97;;;4.00;;
3379;SDS011;1703;51.964;7.642;2023-07-13T10:33:39;5.20;;;2.73;;
3379;SDS011;1703;51.964;7.642;2023-07-13T10:36:11;7.20;;;4.20;;
3379;SDS011;1703;51.964;7.642;2023-07-13T10:38:41;10.13;;;2.87;;
3379;SDS011;1703;51.964;7.642;2023-07-13T10:41:10;6.40;;;3.17;;
3379;SDS011;1703;51.964;7.642;2023-07-13T10:43:41;7.70;;;3.73;;
3379;SDS011;1703;51.964;7.642;2023-07-13T10:46:12;5.07;;;3.43;;
3379;SDS011;1703;51.964;7.642;2023-07-13T10:48:42;6.90;;;3.63;;
3379;SDS011;1703;51.964;7.642;2023-07-13T10:51:13;13.50;;;4.53;;
3379;SDS011;1703;51.964;7.642;2023-07-13T10:53:46;9.73;;;3.80;;
3379;SDS011;1703;51.964;7.642;2023-07-13T10:56:22;10.57;;;3.90;;
3379;SDS011;1703;51.964;7.642;2023-07-13T10:59:01;5.17;;;3.20;;
3379;SDS011;1703;51.964;7.642;2023-07-13T11:01:40;17.93;;;3.60;;
3379;SDS011;1703;51.964;7.642;2023-07-13T11:04:18;6.57;;;3.30;;
3379;SDS011;1703;51.964;7.642;2023-07-13T11:06:49;6.43;;;3.00;;
3379;SDS011;1703;51.964;7.642;2023-07-13T11:12:06;4.20;;;2.30;;
3379;SDS011;1703;51.964;7.642;2023-07-13T11:14:41;11.43;;;2.50;;
3379;SDS011;1703;51.964;7.642;2023-07-13T11:17:36;3.33;;;2.63;;
3379;SDS011;1703;51.964;7.642;2023-07-13T11:20:30;7.90;;;2.77;;
3379;SDS011;1703;51.964;7.642;2023-07-13T11:23:16;5.30;;;2.53;;
3379;SDS011;1703;51.964;7.642;2023-07-13T11:25:46;5.60;;;2.90;;
3379;SDS011;1703;51.964;7.642;2023-07-13T11:28:18;8.30;;;2.90;;
3379;SDS011;1703;51.964;7.642;2023-07-13T11:30:53;15.20;;;3.17;;
3379;SDS011;1703;51.964;7.642;2023-07-13T11:33:28;4.40;;;2.47;;
3379;SDS011;1703;51.964;7.642;2023-07-13T11:36:13;6.27;;;2.77;;
3379;SDS011;1703;51.964;7.642;2023-07-13T11:38:43;4.00;;;2.43;;
3379;SDS011;1703;51.964;7.642;2023-07-13T11:41:16;6.20;;;2.90;;
3379;SDS011;1703;51.964;7.642;2023-07-13T11:43:45;9.10;;;2.80;;
3379;SDS011;1703;51.964;7.642;2023-07-13T11:46:17;6.23;;;3.70;;
3379;SDS011;1703;51.964;7.642;2023-07-13T11:48:48;5.97;;;2.90;;
3379;SDS011;1703;51.964;7.642;2023-07-13T11:51:18;17.93;;;2.80;;
3379;SDS011;1703;51.964;7.642;2023-07-13T11:53:50;4.07;;;2.70;;
3379;SDS011;1703;51.964;7.642;2023-07-13T11:56:17;9.43;;;2.90;;
3379;SDS011;1703;51.964;7.642;2023-07-13T11:58:47;3.97;;;2.37;;
3379;SDS011;1703;51.964;7.642;2023-07-13T12:01:16;3.77;;;2.60;;
3379;SDS011;1703;51.964;7.642;2023-07-13T12:03:46;8.33;;;2.97;;
3379;SDS011;1703;51.964;7.642;2023-07-13T12:06:26;4.70;;;2.63;;
3379;SDS011;1703;51.964;7.642;2023-07-13T12:08:59;3.30;;;2.00;;
3379;SDS011;1703;51.964;7.642;2023-07-13T12:11:28;5.63;;;2.50;;
3379;SDS011;1703;51.964;7.642;2023-07-13T12:13:56;5.57;;;1.97;;
3379;SDS011;1703;51.964;7.642;2023-07-13T12:16:26;7.67;;;3.23;;
3379;SDS011;1703;51.964;7.642;2023-07-13T12:18:55;2.67;;;2.43;;
3379;SDS011;1703;51.964;7.642;2023-07-13T12:21:26;11.03;;;3.00;;
3379;SDS011;1703;51.964;7.642;2023-07-13T12:23:58;7.33;;;2.00;;
3379;SDS011;1703;51.964;7.642;2023-07-13T12:26:27;7.50;;;2.63;;
3379;SDS011;1703;51.964;7.642;2023-07-13T12:28:55;7.93;;;3.37;;
3379;SDS011;1703;51.964;7.642;2023-07-13T12:31:24;8.00;;;3.70;;
3379;SDS011;1703;51.964;7.642;2023-07-13T12:33:59;9.13;;;4.20;;
3379;SDS011;1703;51.964;7.642;2023-07-13T12:36:29;10.77;;;4.30;;
3379;SDS011;1703;51.964;7.642;2023-07-13T12:39:02;4.90;;;4.17;;
3379;SDS011;1703;51.964;7.642;2023-07-13T12:41:36;10.40;;;5.13;;
3379;SDS011;1703;51.964;7.642;2023-07-13T12:44:04;8.17;;;4.73;;
3379;SDS011;1703;51.964;7.642;2023-07-13T12:46:34;4.80;;;4.40;;
3379;SDS011;1703;51.964;7.642;2023-07-13T12:49:01;13.43;;;4.73;;
3379;SDS011;1703;51.964;7.642;2023-07-13T12:51:33;6.90;;;4.50;;
3379;SDS011;1703;51.964;7.642;2023-07-13T12:54:07;6.40;;;5.50;;
3379;SDS011;1703;51.964;7.642;2023-07-13T12:56:41;13.90;;;5.73;;
3379;SDS011;1703;51.964;7.642;2023-07-13T12:59:13;12.00;;;4.40;;
3379;SDS011;1703;51.964;7.642;2023-07-13T13:01:50;13.27;;;6.50;;
3379;SDS011;1703;51.964;7.642;2023-07-13T13:04:18;11.80;;;6.03;;
3379;SDS011;1703;51.964;7.642;2023-07-13T13:06:46;7.43;;;5.03;;
3379;SDS011;1703;51.964;7.642;2023-07-13T13:09:16;6.37;;;4.43;;
3379;SDS011;1703;51.964;7.642;2023-07-13T13:11:45;17.03;;;5.13;;
3379;SDS011;1703;51.964;7.642;2023-07-13T13:14:12;6.63;;;4.63;;
3379;SDS011;1703;51.964;7.642;2023-07-13T13:16:43;5.33;;;4.70;;
3379;SDS011;1703;51.964;7.642;2023-07-13T13:19:15;9.80;;;4.90;;
3379;SDS011;1703;51.964;7.642;2023-07-13T13:21:44;6.33;;;4.97;;
3379;SDS011;1703;51.964;7.642;2023-07-13T13:24:12;15.80;;;7.70;;
3379;SDS011;1703;51.964;7.642;2023-07-13T13:26:42;8.47;;;5.43;;
3379;SDS011;1703;51.964;7.642;2023-07-13T13:29:13;5.63;;;5.10;;
3379;SDS011;1703;51.964;7.642;2023-07-13T13:31:41;12.80;;;6.20;;
3379;SDS011;1703;51.964;7.642;2023-07-13T13:34:10;12.53;;;6.77;;
3379;SDS011;1703;51.964;7.642;2023-07-13T13:36:38;8.60;;;4.40;;
3379;SDS011;1703;51.964;7.642;2023-07-13T13:39:08;11.60;;;4.00;;
3379;SDS011;1703;51.964;7.642;2023-07-13T13:41:46;5.23;;;4.63;;
3379;SDS011;1703;51.964;7.642;2023-07-13T13:44:14;9.43;;;4.60;;
3379;SDS011;1703;51.964;7.642;2023-07-13T13:46:42;5.40;;;4.50;;
3379;SDS011;1703;51.964;7.642;2023-07-13T13:49:12;5.10;;;3.90;;
3379;SDS011;1703;51.964;7.642;2023-07-13T13:51:41;5.87;;;4.77;;
3379;SDS011;1703;51.964;7.642;2023-07-13T13:54:10;10.13;;;4.83;;
3379;SDS011;1703;51.964;7.642;2023-07-13T13:56:38;8.37;;;4.67;;
3379;SDS011;1703;51.964;7.642;2023-07-13T13:59:06;5.10;;;4.60;;
3379;SDS011;1703;51.964;7.642;2023-07-13T14:01:33;6.07;;;4.83;;
3379;SDS011;1703;51.964;7.642;2023-07-13T14:04:01;4.80;;;3.50;;
3379;SDS011;1703;51.964;7.642;2023-07-13T14:06:28;4.50;;;4.10;;
3379;SDS011;1703;51.964;7.642;2023-07-13T14:08:55;8.07;;;4.33;;
3379;SDS011;1703;51.964;7.642;2023-07-13T14:11:22;8.33;;;3.60;;
3379;SDS011;1703;51.964;7.642;2023-07-13T14:13:49;6.40;;;4.37;;
3379;SDS011;1703;51.964;7.642;2023-07-13T14:16:21;6.27;;;4.27;;
3379;SDS011;1703;51.964;7.642;2023-07-13T14:18:49;5.73;;;3.70;;
3379;SDS011;1703;51.964;7.642;2023-07-13T14:21:16;6.30;;;4.73;;
3379;SDS011;1703;51.964;7.642;2023-07-13T14:23:45;12.33;;;6.83;;
3379;SDS011;1703;51.964;7.642;2023-07-13T14:26:13;7.33;;;5.10;;
3379;SDS011;1703;51.964;7.642;2023-07-13T14:28:42;6.87;;;4.53;;
3379;SDS011;1703;51.964;7.642;2023-07-13T14:31:11;8.40;;;5.97;;
3379;SDS011;1703;51.964;7.642;2023-07-13T14:33:40;12.10;;;5.47;;
3379;SDS011;1703;51.964;7.642;2023-07-13T14:36:13;6.53;;;4.33;;
3379;SDS011;1703;51.964;7.642;2023-07-13T14:38:54;5.20;;;4.80;;
3379;SDS011;1703;51.964;7.642;2023-07-13T14:41:21;6.70;;;5.17;;
3379;SDS011;1703;51.964;7.642;2023-07-13T14:43:48;5.40;;;4.90;;
3379;SDS011;1703;51.964;7.642;2023-07-13T14:46:21;6.73;;;4.73;;
3379;SDS011;1703;51.964;7.642;2023-07-13T14:48:59;6.73;;;5.10;;
3379;SDS011;1703;51.964;7.642;2023-07-13T14:51:29;4.90;;;4.30;;
3379;SDS011;1703;51.964;7.642;2023-07-13T14:53:58;4.60;;;4.00;;
3379;SDS011;1703;51.964;7.642;2023-07-13T14:56:28;6.03;;;3.27;;
3379;SDS011;1703;51.964;7.642;2023-07-13T14:58:55;7.40;;;4.03;;
3379;SDS011;1703;51.964;7.642;2023-07-13T15:01:22;3.30;;;3.00;;
3379;SDS011;1703;51.964;7.642;2023-07-13T15:03:50;4.27;;;3.53;;
3379;SDS011;1703;51.964;7.642;2023-07-13T15:06:20;4.13;;;3.70;;
3379;SDS011;1703;51.964;7.642;2023-07-13T15:08:47;4.23;;;3.80;;
3379;SDS011;1703;51.964;7.642;2023-07-13T15:11:15;5.40;;;3.10;;
3379;SDS011;1703;51.964;7.642;2023-07-13T15:13:42;3.77;;;3.13;;
3379;SDS011;1703;51.964;7.642;2023-07-13T15:16:14;3.80;;;2.90;;
3379;SDS011;1703;51.964;7.642;2023-07-13T15:18:43;3.27;;;2.97;;
3379;SDS011;1703;51.964;7.642;2023-07-13T15:21:11;4.50;;;3.93;;
3379;SDS011;1703;51.964;7.642;2023-07-13T15:23:45;5.47;;;3.30;;
3379;SDS011;1703;51.964;7.642;2023-07-13T15:26:12;4.83;;;3.73;;
3379;SDS011;1703;51.964;7.642;2023-07-13T15:28:40;5.20;;;3.23;;
3379;SDS011;1703;51.964;7.642;2023-07-13T15:31:16;4.33;;;3.70;;